Google Maps JavaScript API Example
Pilot Flight Report # 93101 Submitted by : AST775 on 2019-07-10
Date: 2019-07-10Aircraft: Howard 500
Flight No.: Not AvailableDistance (Nm): 314.74
Departure: SBSN - Santarem IntlDestination: SBMN - Ponta Pelada
 TimeFuelWeightSpeeds  
Out (Taxi)0847Z2688 lbs27667 lbs Flight RulesVFR
Off (Takeoff)0847Z 27659 lbs85 ktsFlight Level15000
On (Landing)1000Z 25120 lbs104 ktsVSTD-178 ft/min
In (Ramp)1000Z822 lbs25120 lbs ZFW24303 lbs
Flight1.20  -  1:131854 lbs  Pax0
Block1.22  -  1:131866 lbs  Cargo0
Departure Weather100945Z 00000KT 0SM SKC 0/0 A30
Destination WeatherSWHT 101000Z 17502KT 23SM +RA SKC 22/10 A2991
Flight CommentsLeg 6 - SBSN - SBMN